sensor_id;sensor_type;location;lat;lon;timestamp;P1;durP1;ratioP1;P2;durP2;ratioP2
49590;SDS011;35496;-21.974;-46.800;2023-05-10T00:01:54;15.50;;;8.02;;
49590;SDS011;35496;-21.974;-46.800;2023-05-10T00:04:20;9.70;;;6.78;;
49590;SDS011;35496;-21.974;-46.800;2023-05-10T00:06:46;13.70;;;7.80;;
49590;SDS011;35496;-21.974;-46.800;2023-05-10T00:09:13;7.53;;;6.55;;
49590;SDS011;35496;-21.974;-46.800;2023-05-10T00:11:39;9.15;;;7.45;;
49590;SDS011;35496;-21.974;-46.800;2023-05-10T00:14:05;7.65;;;6.85;;
49590;SDS011;35496;-21.974;-46.800;2023-05-10T00:16:31;12.05;;;7.30;;
49590;SDS011;35496;-21.974;-46.800;2023-05-10T00:18:57;10.27;;;7.35;;
49590;SDS011;35496;-21.974;-46.800;2023-05-10T00:21:23;10.80;;;7.32;;
49590;SDS011;35496;-21.974;-46.800;2023-05-10T00:23:49;7.55;;;6.65;;
49590;SDS011;35496;-21.974;-46.800;2023-05-10T00:26:15;9.02;;;6.85;;
49590;SDS011;35496;-21.974;-46.800;2023-05-10T00:28:42;8.68;;;6.97;;
49590;SDS011;35496;-21.974;-46.800;2023-05-10T00:31:08;12.00;;;7.35;;
49590;SDS011;35496;-21.974;-46.800;2023-05-10T00:33:34;6.78;;;6.13;;
49590;SDS011;35496;-21.974;-46.800;2023-05-10T00:36:00;11.82;;;6.82;;
49590;SDS011;35496;-21.974;-46.800;2023-05-10T00:38:26;7.97;;;6.18;;
49590;SDS011;35496;-21.974;-46.800;2023-05-10T00:40:52;7.80;;;6.00;;
49590;SDS011;35496;-21.974;-46.800;2023-05-10T00:43:18;6.90;;;5.95;;
49590;SDS011;35496;-21.974;-46.800;2023-05-10T00:45:44;7.78;;;6.30;;
49590;SDS011;35496;-21.974;-46.800;2023-05-10T00:48:10;11.32;;;7.20;;
49590;SDS011;35496;-21.974;-46.800;2023-05-10T00:50:36;7.18;;;6.40;;
49590;SDS011;35496;-21.974;-46.800;2023-05-10T00:53:02;9.25;;;6.63;;
49590;SDS011;35496;-21.974;-46.800;2023-05-10T00:55:29;14.02;;;7.45;;
49590;SDS011;35496;-21.974;-46.800;2023-05-10T00:57:55;8.95;;;6.65;;
49590;SDS011;35496;-21.974;-46.800;2023-05-10T01:00:21;12.98;;;7.13;;
49590;SDS011;35496;-21.974;-46.800;2023-05-10T01:02:47;8.85;;;7.30;;
49590;SDS011;35496;-21.974;-46.800;2023-05-10T01:05:14;12.18;;;7.55;;
49590;SDS011;35496;-21.974;-46.800;2023-05-10T01:07:40;7.00;;;6.10;;
49590;SDS011;35496;-21.974;-46.800;2023-05-10T01:10:07;10.82;;;5.60;;
49590;SDS011;35496;-21.974;-46.800;2023-05-10T01:12:34;10.15;;;6.80;;
49590;SDS011;35496;-21.974;-46.800;2023-05-10T01:15:01;10.52;;;7.22;;
49590;SDS011;35496;-21.974;-46.800;2023-05-10T01:17:28;8.57;;;7.70;;
49590;SDS011;35496;-21.974;-46.800;2023-05-10T01:19:54;10.15;;;6.68;;
49590;SDS011;35496;-21.974;-46.800;2023-05-10T01:30:25;9.25;;;7.68;;
49590;SDS011;35496;-21.974;-46.800;2023-05-10T01:32:57;12.50;;;6.20;;
49590;SDS011;35496;-21.974;-46.800;2023-05-10T01:35:31;11.98;;;6.90;;
49590;SDS011;35496;-21.974;-46.800;2023-05-10T01:40:50;14.82;;;6.95;;
49590;SDS011;35496;-21.974;-46.800;2023-05-10T01:43:22;12.05;;;6.38;;
49590;SDS011;35496;-21.974;-46.800;2023-05-10T01:46:01;8.30;;;7.50;;
49590;SDS011;35496;-21.974;-46.800;2023-05-10T01:48:30;8.65;;;6.60;;
49590;SDS011;35496;-21.974;-46.800;2023-05-10T01:50:56;6.22;;;5.63;;
49590;SDS011;35496;-21.974;-46.800;2023-05-10T01:53:23;11.93;;;6.80;;
49590;SDS011;35496;-21.974;-46.800;2023-05-10T01:55:51;8.88;;;6.32;;
49590;SDS011;35496;-21.974;-46.800;2023-05-10T01:58:50;9.80;;;6.78;;
49590;SDS011;35496;-21.974;-46.800;2023-05-10T02:01:11;7.82;;;7.03;;
49590;SDS011;35496;-21.974;-46.800;2023-05-10T02:03:38;8.85;;;6.85;;
49590;SDS011;35496;-21.974;-46.800;2023-05-10T02:06:04;13.27;;;9.20;;
49590;SDS011;35496;-21.974;-46.800;2023-05-10T02:08:30;13.27;;;7.55;;
49590;SDS011;35496;-21.974;-46.800;2023-05-10T02:10:57;7.30;;;6.40;;
49590;SDS011;35496;-21.974;-46.800;2023-05-10T02:13:24;7.20;;;6.50;;
49590;SDS011;35496;-21.974;-46.800;2023-05-10T02:15:51;9.10;;;6.50;;
49590;SDS011;35496;-21.974;-46.800;2023-05-10T02:18:19;11.93;;;7.80;;
49590;SDS011;35496;-21.974;-46.800;2023-05-10T02:20:46;15.73;;;8.00;;
49590;SDS011;35496;-21.974;-46.800;2023-05-10T02:23:12;8.77;;;6.18;;
49590;SDS011;35496;-21.974;-46.800;2023-05-10T02:25:39;8.43;;;6.90;;
49590;SDS011;35496;-21.974;-46.800;2023-05-10T02:28:05;7.78;;;6.75;;
49590;SDS011;35496;-21.974;-46.800;2023-05-10T02:30:32;8.40;;;7.35;;
49590;SDS011;35496;-21.974;-46.800;2023-05-10T02:32:59;7.07;;;6.30;;
49590;SDS011;35496;-21.974;-46.800;2023-05-10T02:35:26;7.88;;;7.07;;
49590;SDS011;35496;-21.974;-46.800;2023-05-10T02:37:52;9.73;;;5.68;;
49590;SDS011;35496;-21.974;-46.800;2023-05-10T02:40:18;8.88;;;6.32;;
49590;SDS011;35496;-21.974;-46.800;2023-05-10T02:42:46;6.70;;;5.47;;
49590;SDS011;35496;-21.974;-46.800;2023-05-10T02:45:15;13.50;;;6.15;;
49590;SDS011;35496;-21.974;-46.800;2023-05-10T02:47:42;9.45;;;6.00;;
49590;SDS011;35496;-21.974;-46.800;2023-05-10T02:50:09;6.72;;;6.13;;
49590;SDS011;35496;-21.974;-46.800;2023-05-10T02:52:44;7.57;;;6.78;;
49590;SDS011;35496;-21.974;-46.800;2023-05-10T02:55:12;12.40;;;7.70;;
49590;SDS011;35496;-21.974;-46.800;2023-05-10T02:57:46;9.98;;;7.88;;
49590;SDS011;35496;-21.974;-46.800;2023-05-10T03:00:14;10.07;;;7.57;;
49590;SDS011;35496;-21.974;-46.800;2023-05-10T03:02:40;10.75;;;8.15;;
49590;SDS011;35496;-21.974;-46.800;2023-05-10T03:05:07;11.23;;;8.68;;
49590;SDS011;35496;-21.974;-46.800;2023-05-10T03:07:33;12.82;;;8.05;;
49590;SDS011;35496;-21.974;-46.800;2023-05-10T03:09:59;12.13;;;9.15;;
49590;SDS011;35496;-21.974;-46.800;2023-05-10T03:12:47;11.40;;;8.35;;
49590;SDS011;35496;-21.974;-46.800;2023-05-10T03:15:20;12.20;;;7.37;;
49590;SDS011;35496;-21.974;-46.800;2023-05-10T03:18:00;9.20;;;8.30;;
49590;SDS011;35496;-21.974;-46.800;2023-05-10T03:20:31;12.88;;;7.90;;
49590;SDS011;35496;-21.974;-46.800;2023-05-10T03:23:07;13.80;;;8.32;;
49590;SDS011;35496;-21.974;-46.800;2023-05-10T03:25:35;7.80;;;6.97;;
49590;SDS011;35496;-21.974;-46.800;2023-05-10T03:28:01;8.25;;;5.95;;
49590;SDS011;35496;-21.974;-46.800;2023-05-10T03:30:29;14.18;;;8.43;;
49590;SDS011;35496;-21.974;-46.800;2023-05-10T03:32:56;9.23;;;8.00;;
49590;SDS011;35496;-21.974;-46.800;2023-05-10T03:35:22;11.05;;;8.85;;
49590;SDS011;35496;-21.974;-46.800;2023-05-10T03:37:49;10.07;;;8.98;;
49590;SDS011;35496;-21.974;-46.800;2023-05-10T03:40:15;9.63;;;7.55;;
49590;SDS011;35496;-21.974;-46.800;2023-05-10T03:42:41;10.73;;;9.20;;
49590;SDS011;35496;-21.974;-46.800;2023-05-10T03:45:07;10.73;;;9.45;;
49590;SDS011;35496;-21.974;-46.800;2023-05-10T03:47:33;11.63;;;9.48;;
49590;SDS011;35496;-21.974;-46.800;2023-05-10T03:49:59;12.68;;;9.63;;
49590;SDS011;35496;-21.974;-46.800;2023-05-10T03:52:25;10.63;;;9.07;;
49590;SDS011;35496;-21.974;-46.800;2023-05-10T03:54:52;11.75;;;10.02;;
49590;SDS011;35496;-21.974;-46.800;2023-05-10T03:57:18;17.33;;;9.40;;
49590;SDS011;35496;-21.974;-46.800;2023-05-10T03:59:44;10.52;;;9.35;;
49590;SDS011;35496;-21.974;-46.800;2023-05-10T04:02:10;11.38;;;10.02;;
49590;SDS011;35496;-21.974;-46.800;2023-05-10T04:04:36;11.35;;;9.68;;
49590;SDS011;35496;-21.974;-46.800;2023-05-10T04:07:02;29.10;;;9.45;;
49590;SDS011;35496;-21.974;-46.800;2023-05-10T04:09:28;14.63;;;12.65;;
49590;SDS011;35496;-21.974;-46.800;2023-05-10T04:11:54;16.75;;;10.18;;
49590;SDS011;35496;-21.974;-46.800;2023-05-10T04:14:21;18.85;;;11.10;;
49590;SDS011;35496;-21.974;-46.800;2023-05-10T04:16:47;16.75;;;11.25;;
49590;SDS011;35496;-21.974;-46.800;2023-05-10T04:19:13;16.08;;;11.27;;
49590;SDS011;35496;-21.974;-46.800;2023-05-10T04:21:39;13.43;;;10.80;;
49590;SDS011;35496;-21.974;-46.800;2023-05-10T04:24:05;15.48;;;12.55;;
49590;SDS011;35496;-21.974;-46.800;2023-05-10T04:26:31;13.30;;;11.20;;
49590;SDS011;35496;-21.974;-46.800;2023-05-10T04:28:57;14.48;;;9.98;;
49590;SDS011;35496;-21.974;-46.800;2023-05-10T04:31:23;13.43;;;11.63;;
49590;SDS011;35496;-21.974;-46.800;2023-05-10T04:33:49;17.45;;;12.48;;
49590;SDS011;35496;-21.974;-46.800;2023-05-10T04:36:15;18.10;;;10.38;;
49590;SDS011;35496;-21.974;-46.800;2023-05-10T04:38:41;17.10;;;11.90;;
49590;SDS011;35496;-21.974;-46.800;2023-05-10T04:41:08;16.13;;;10.73;;
49590;SDS011;35496;-21.974;-46.800;2023-05-10T04:43:35;12.20;;;9.80;;
49590;SDS011;35496;-21.974;-46.800;2023-05-10T04:46:01;16.02;;;11.13;;
49590;SDS011;35496;-21.974;-46.800;2023-05-10T04:48:27;18.38;;;11.50;;
49590;SDS011;35496;-21.974;-46.800;2023-05-10T04:50:53;11.90;;;10.25;;
49590;SDS011;35496;-21.974;-46.800;2023-05-10T04:53:19;27.00;;;12.73;;
49590;SDS011;35496;-21.974;-46.800;2023-05-10T04:55:46;11.30;;;10.15;;
49590;SDS011;35496;-21.974;-46.800;2023-05-10T04:58:12;13.85;;;10.88;;
49590;SDS011;35496;-21.974;-46.800;2023-05-10T05:00:38;13.57;;;11.13;;
49590;SDS011;35496;-21.974;-46.800;2023-05-10T05:03:04;11.07;;;9.15;;
49590;SDS011;35496;-21.974;-46.800;2023-05-10T05:05:30;15.13;;;8.52;;
49590;SDS011;35496;-21.974;-46.800;2023-05-10T05:07:56;10.18;;;8.40;;
49590;SDS011;35496;-21.974;-46.800;2023-05-10T05:10:22;10.75;;;8.13;;
49590;SDS011;35496;-21.974;-46.800;2023-05-10T05:12:48;11.48;;;8.65;;
49590;SDS011;35496;-21.974;-46.800;2023-05-10T05:15:14;15.52;;;9.80;;
49590;SDS011;35496;-21.974;-46.800;2023-05-10T05:17:42;14.23;;;10.38;;
49590;SDS011;35496;-21.974;-46.800;2023-05-10T05:20:08;16.30;;;10.85;;
49590;SDS011;35496;-21.974;-46.800;2023-05-10T05:22:35;20.35;;;11.38;;
49590;SDS011;35496;-21.974;-46.800;2023-05-10T05:25:01;13.40;;;9.45;;
49590;SDS011;35496;-21.974;-46.800;2023-05-10T05:27:28;12.88;;;10.82;;
49590;SDS011;35496;-21.974;-46.800;2023-05-10T05:29:55;10.10;;;8.80;;
49590;SDS011;35496;-21.974;-46.800;2023-05-10T05:32:21;13.55;;;9.25;;
49590;SDS011;35496;-21.974;-46.800;2023-05-10T05:34:48;12.27;;;9.23;;
49590;SDS011;35496;-21.974;-46.800;2023-05-10T05:37:14;21.05;;;9.02;;
49590;SDS011;35496;-21.974;-46.800;2023-05-10T05:39:41;11.95;;;8.55;;
49590;SDS011;35496;-21.974;-46.800;2023-05-10T05:42:08;10.20;;;8.85;;
49590;SDS011;35496;-21.974;-46.800;2023-05-10T05:44:34;10.43;;;8.60;;
49590;SDS011;35496;-21.974;-46.800;2023-05-10T05:47:00;13.25;;;9.25;;
49590;SDS011;35496;-21.974;-46.800;2023-05-10T05:49:26;9.80;;;7.75;;
49590;SDS011;35496;-21.974;-46.800;2023-05-10T05:51:52;8.98;;;7.57;;
49590;SDS011;35496;-21.974;-46.800;2023-05-10T05:54:18;8.88;;;7.80;;
49590;SDS011;35496;-21.974;-46.800;2023-05-10T05:56:44;14.98;;;8.20;;
49590;SDS011;35496;-21.974;-46.800;2023-05-10T05:59:11;9.90;;;6.90;;
49590;SDS011;35496;-21.974;-46.800;2023-05-10T06:01:37;9.70;;;7.85;;
49590;SDS011;35496;-21.974;-46.800;2023-05-10T06:04:03;13.60;;;7.85;;
49590;SDS011;35496;-21.974;-46.800;2023-05-10T06:06:29;12.32;;;9.05;;
49590;SDS011;35496;-21.974;-46.800;2023-05-10T06:08:55;11.18;;;8.30;;
49590;SDS011;35496;-21.974;-46.800;2023-05-10T06:11:21;12.05;;;8.00;;
49590;SDS011;35496;-21.974;-46.800;2023-05-10T06:13:47;10.43;;;7.05;;
49590;SDS011;35496;-21.974;-46.800;2023-05-10T06:16:13;11.20;;;7.93;;
49590;SDS011;35496;-21.974;-46.800;2023-05-10T06:18:39;11.73;;;8.10;;
49590;SDS011;35496;-21.974;-46.800;2023-05-10T06:21:05;11.35;;;8.27;;
49590;SDS011;35496;-21.974;-46.800;2023-05-10T06:23:31;10.68;;;8.00;;
49590;SDS011;35496;-21.974;-46.800;2023-05-10T06:25:57;14.73;;;8.98;;
49590;SDS011;35496;-21.974;-46.800;2023-05-10T06:28:23;18.67;;;9.20;;
49590;SDS011;35496;-21.974;-46.800;2023-05-10T06:30:50;10.80;;;7.88;;
49590;SDS011;35496;-21.974;-46.800;2023-05-10T06:33:16;10.45;;;8.07;;
49590;SDS011;35496;-21.974;-46.800;2023-05-10T06:35:42;10.35;;;8.35;;
49590;SDS011;35496;-21.974;-46.800;2023-05-10T06:38:08;12.52;;;8.05;;
49590;SDS011;35496;-21.974;-46.800;2023-05-10T06:40:34;15.27;;;8.68;;
49590;SDS011;35496;-21.974;-46.800;2023-05-10T06:43:01;8.85;;;7.82;;
49590;SDS011;35496;-21.974;-46.800;2023-05-10T06:45:27;12.85;;;7.95;;
49590;SDS011;35496;-21.974;-46.800;2023-05-10T06:47:53;11.32;;;8.73;;
49590;SDS011;35496;-21.974;-46.800;2023-05-10T06:50:19;9.25;;;8.30;;
49590;SDS011;35496;-21.974;-46.800;2023-05-10T06:52:45;14.65;;;8.82;;
49590;SDS011;35496;-21.974;-46.800;2023-05-10T06:55:11;15.80;;;7.57;;
49590;SDS011;35496;-21.974;-46.800;2023-05-10T06:57:37;13.57;;;8.63;;
49590;SDS011;35496;-21.974;-46.800;2023-05-10T07:00:04;15.45;;;7.95;;
49590;SDS011;35496;-21.974;-46.800;2023-05-10T07:02:30;9.35;;;8.32;;
49590;SDS011;35496;-21.974;-46.800;2023-05-10T07:04:56;9.32;;;8.43;;
49590;SDS011;35496;-21.974;-46.800;2023-05-10T07:07:22;11.13;;;8.02;;
49590;SDS011;35496;-21.974;-46.800;2023-05-10T07:09:49;8.52;;;6.97;;
49590;SDS011;35496;-21.974;-46.800;2023-05-10T07:12:17;10.07;;;8.27;;
49590;SDS011;35496;-21.974;-46.800;2023-05-10T07:14:44;9.43;;;7.55;;
49590;SDS011;35496;-21.974;-46.800;2023-05-10T07:17:10;12.10;;;8.05;;
49590;SDS011;35496;-21.974;-46.800;2023-05-10T07:19:36;13.35;;;7.88;;
49590;SDS011;35496;-21.974;-46.800;2023-05-10T07:22:02;20.63;;;8.18;;
49590;SDS011;35496;-21.974;-46.800;2023-05-10T07:24:28;13.38;;;8.95;;
49590;SDS011;35496;-21.974;-46.800;2023-05-10T07:26:55;11.02;;;8.18;;
49590;SDS011;35496;-21.974;-46.800;2023-05-10T07:29:21;10.32;;;8.85;;
49590;SDS011;35496;-21.974;-46.800;2023-05-10T07:31:47;9.18;;;8.27;;
49590;SDS011;35496;-21.974;-46.800;2023-05-10T07:34:13;9.80;;;8.77;;
49590;SDS011;35496;-21.974;-46.800;2023-05-10T07:36:39;13.05;;;9.52;;
49590;SDS011;35496;-21.974;-46.800;2023-05-10T07:39:05;11.00;;;9.82;;
49590;SDS011;35496;-21.974;-46.800;2023-05-10T07:41:31;12.32;;;8.27;;
49590;SDS011;35496;-21.974;-46.800;2023-05-10T07:43:58;12.85;;;9.23;;
49590;SDS011;35496;-21.974;-46.800;2023-05-10T07:46:24;11.48;;;8.93;;
49590;SDS011;35496;-21.974;-46.800;2023-05-10T07:48:50;11.90;;;9.27;;
49590;SDS011;35496;-21.974;-46.800;2023-05-10T07:51:16;11.52;;;8.77;;
49590;SDS011;35496;-21.974;-46.800;2023-05-10T07:53:42;10.77;;;8.35;;
49590;SDS011;35496;-21.974;-46.800;2023-05-10T07:56:22;12.20;;;9.60;;
49590;SDS011;35496;-21.974;-46.800;2023-05-10T07:58:48;14.45;;;8.18;;
49590;SDS011;35496;-21.974;-46.800;2023-05-10T08:01:14;13.85;;;9.77;;
49590;SDS011;35496;-21.974;-46.800;2023-05-10T08:03:40;10.45;;;8.10;;
49590;SDS011;35496;-21.974;-46.800;2023-05-10T08:06:06;12.40;;;8.52;;
49590;SDS011;35496;-21.974;-46.800;2023-05-10T08:08:32;14.30;;;8.95;;
49590;SDS011;35496;-21.974;-46.800;2023-05-10T08:10:58;13.98;;;9.95;;
49590;SDS011;35496;-21.974;-46.800;2023-05-10T08:13:24;16.15;;;10.52;;
49590;SDS011;35496;-21.974;-46.800;2023-05-10T08:15:50;12.32;;;10.85;;
49590;SDS011;35496;-21.974;-46.800;2023-05-10T08:18:18;13.80;;;10.35;;
49590;SDS011;35496;-21.974;-46.800;2023-05-10T08:20:44;12.85;;;10.48;;
49590;SDS011;35496;-21.974;-46.800;2023-05-10T08:23:12;14.95;;;10.25;;
49590;SDS011;35496;-21.974;-46.800;2023-05-10T08:25:38;17.13;;;10.68;;
49590;SDS011;35496;-21.974;-46.800;2023-05-10T08:28:05;20.20;;;11.27;;
49590;SDS011;35496;-21.974;-46.800;2023-05-10T08:30:31;16.70;;;11.75;;
49590;SDS011;35496;-21.974;-46.800;2023-05-10T08:32:57;12.73;;;9.98;;
49590;SDS011;35496;-21.974;-46.800;2023-05-10T08:35:23;16.23;;;10.85;;
49590;SDS011;35496;-21.974;-46.800;2023-05-10T08:37:50;13.70;;;10.38;;
49590;SDS011;35496;-21.974;-46.800;2023-05-10T08:40:16;16.17;;;11.68;;
49590;SDS011;35496;-21.974;-46.800;2023-05-10T08:42:47;21.42;;;14.02;;
49590;SDS011;35496;-21.974;-46.800;2023-05-10T08:45:16;20.02;;;14.93;;
49590;SDS011;35496;-21.974;-46.800;2023-05-10T08:47:43;18.10;;;12.75;;
49590;SDS011;35496;-21.974;-46.800;2023-05-10T08:50:09;18.20;;;12.10;;
49590;SDS011;35496;-21.974;-46.800;2023-05-10T08:52:37;17.60;;;13.48;;
49590;SDS011;35496;-21.974;-46.800;2023-05-10T08:55:05;19.30;;;14.35;;
49590;SDS011;35496;-21.974;-46.800;2023-05-10T08:57:31;20.02;;;12.65;;
49590;SDS011;35496;-21.974;-46.800;2023-05-10T08:59:57;14.50;;;12.13;;
49590;SDS011;35496;-21.974;-46.800;2023-05-10T09:02:24;16.45;;;12.43;;
49590;SDS011;35496;-21.974;-46.800;2023-05-10T09:04:51;13.13;;;11.77;;
49590;SDS011;35496;-21.974;-46.800;2023-05-10T09:07:17;14.95;;;12.52;;
49590;SDS011;35496;-21.974;-46.800;2023-05-10T09:09:43;19.25;;;11.15;;
49590;SDS011;35496;-21.974;-46.800;2023-05-10T09:12:09;11.90;;;10.70;;
49590;SDS011;35496;-21.974;-46.800;2023-05-10T09:14:36;17.35;;;12.50;;
49590;SDS011;35496;-21.974;-46.800;2023-05-10T09:17:03;14.82;;;11.73;;
49590;SDS011;35496;-21.974;-46.800;2023-05-10T09:19:30;17.02;;;13.02;;
49590;SDS011;35496;-21.974;-46.800;2023-05-10T09:21:56;15.45;;;12.20;;
49590;SDS011;35496;-21.974;-46.800;2023-05-10T09:24:25;14.02;;;11.82;;
49590;SDS011;35496;-21.974;-46.800;2023-05-10T09:26:52;15.02;;;10.32;;
49590;SDS011;35496;-21.974;-46.800;2023-05-10T09:29:18;18.23;;;11.45;;
49590;SDS011;35496;-21.974;-46.800;2023-05-10T09:31:48;17.63;;;10.93;;
49590;SDS011;35496;-21.974;-46.800;2023-05-10T09:34:19;14.32;;;10.70;;
49590;SDS011;35496;-21.974;-46.800;2023-05-10T09:36:50;13.60;;;11.68;;
49590;SDS011;35496;-21.974;-46.800;2023-05-10T09:39:16;16.55;;;11.45;;
49590;SDS011;35496;-21.974;-46.800;2023-05-10T09:41:43;12.75;;;11.38;;
49590;SDS011;35496;-21.974;-46.800;2023-05-10T09:44:09;15.02;;;11.82;;
49590;SDS011;35496;-21.974;-46.800;2023-05-10T09:46:35;15.27;;;11.48;;
49590;SDS011;35496;-21.974;-46.800;2023-05-10T09:49:02;15.13;;;11.77;;
49590;SDS011;35496;-21.974;-46.800;2023-05-10T09:51:28;16.73;;;11.35;;
49590;SDS011;35496;-21.974;-46.800;2023-05-10T09:54:13;13.50;;;10.77;;
49590;SDS011;35496;-21.974;-46.800;2023-05-10T09:56:40;42.75;;;11.50;;
49590;SDS011;35496;-21.974;-46.800;2023-05-10T09:59:07;16.38;;;12.13;;
49590;SDS011;35496;-21.974;-46.800;2023-05-10T10:01:34;13.23;;;9.77;;
49590;SDS011;35496;-21.974;-46.800;2023-05-10T10:04:07;13.85;;;10.52;;
49590;SDS011;35496;-21.974;-46.800;2023-05-10T10:06:39;15.02;;;11.68;;
49590;SDS011;35496;-21.974;-46.800;2023-05-10T10:11:32;15.55;;;12.50;;
49590;SDS011;35496;-21.974;-46.800;2023-05-10T10:13:58;14.73;;;11.10;;
49590;SDS011;35496;-21.974;-46.800;2023-05-10T10:16:24;19.83;;;12.10;;
49590;SDS011;35496;-21.974;-46.800;2023-05-10T10:18:50;27.92;;;11.90;;
49590;SDS011;35496;-21.974;-46.800;2023-05-10T10:21:16;13.70;;;10.50;;
49590;SDS011;35496;-21.974;-46.800;2023-05-10T10:23:43;17.00;;;11.75;;
49590;SDS011;35496;-21.974;-46.800;2023-05-10T10:26:09;18.27;;;10.85;;
49590;SDS011;35496;-21.974;-46.800;2023-05-10T10:31:34;14.13;;;10.48;;
49590;SDS011;35496;-21.974;-46.800;2023-05-10T10:34:08;18.17;;;10.75;;
49590;SDS011;35496;-21.974;-46.800;2023-05-10T10:37:08;14.27;;;10.50;;
49590;SDS011;35496;-21.974;-46.800;2023-05-10T10:39:27;14.70;;;10.40;;
49590;SDS011;35496;-21.974;-46.800;2023-05-10T10:41:55;14.52;;;10.07;;
49590;SDS011;35496;-21.974;-46.800;2023-05-10T10:49:28;12.80;;;7.20;;
49590;SDS011;35496;-21.974;-46.800;2023-05-10T10:54:41;14.48;;;8.25;;
49590;SDS011;35496;-21.974;-46.800;2023-05-10T10:57:13;13.75;;;9.05;;
49590;SDS011;35496;-21.974;-46.800;2023-05-10T10:59:43;14.45;;;8.32;;
49590;SDS011;35496;-21.974;-46.800;2023-05-10T11:02:09;10.95;;;7.75;;
49590;SDS011;35496;-21.974;-46.800;2023-05-10T11:04:42;13.95;;;9.05;;
49590;SDS011;35496;-21.974;-46.800;2023-05-10T11:07:18;22.35;;;11.10;;
49590;SDS011;35496;-21.974;-46.800;2023-05-10T11:09:46;18.67;;;8.50;;
49590;SDS011;35496;-21.974;-46.800;2023-05-10T11:12:12;12.82;;;10.32;;
49590;SDS011;35496;-21.974;-46.800;2023-05-10T11:14:39;15.57;;;9.48;;
49590;SDS011;35496;-21.974;-46.800;2023-05-10T11:17:26;16.55;;;10.57;;
49590;SDS011;35496;-21.974;-46.800;2023-05-10T11:20:07;14.10;;;10.13;;
49590;SDS011;35496;-21.974;-46.800;2023-05-10T11:22:48;17.23;;;9.27;;
49590;SDS011;35496;-21.974;-46.800;2023-05-10T11:25:15;17.80;;;10.33;;
49590;SDS011;35496;-21.974;-46.800;2023-05-10T11:27:41;20.75;;;11.88;;
49590;SDS011;35496;-21.974;-46.800;2023-05-10T11:30:09;26.17;;;15.05;;
49590;SDS011;35496;-21.974;-46.800;2023-05-10T11:32:36;22.40;;;14.80;;
49590;SDS011;35496;-21.974;-46.800;2023-05-10T11:35:09;26.42;;;16.42;;
49590;SDS011;35496;-21.974;-46.800;2023-05-10T11:37:36;23.00;;;14.52;;
49590;SDS011;35496;-21.974;-46.800;2023-05-10T11:40:02;21.25;;;15.32;;
49590;SDS011;35496;-21.974;-46.800;2023-05-10T11:42:28;26.25;;;15.25;;
49590;SDS011;35496;-21.974;-46.800;2023-05-10T11:44:55;40.05;;;16.20;;
49590;SDS011;35496;-21.974;-46.800;2023-05-10T11:47:22;34.80;;;15.02;;
49590;SDS011;35496;-21.974;-46.800;2023-05-10T11:49:48;32.90;;;14.18;;
49590;SDS011;35496;-21.974;-46.800;2023-05-10T11:52:14;38.47;;;18.63;;
49590;SDS011;35496;-21.974;-46.800;2023-05-10T11:54:53;42.42;;;18.80;;
49590;SDS011;35496;-21.974;-46.800;2023-05-10T11:57:19;33.22;;;17.48;;
49590;SDS011;35496;-21.974;-46.800;2023-05-10T11:59:46;59.97;;;19.08;;
49590;SDS011;35496;-21.974;-46.800;2023-05-10T12:02:15;48.95;;;19.23;;
49590;SDS011;35496;-21.974;-46.800;2023-05-10T12:04:41;56.28;;;18.17;;
49590;SDS011;35496;-21.974;-46.800;2023-05-10T12:07:07;40.17;;;17.58;;
49590;SDS011;35496;-21.974;-46.800;2023-05-10T12:09:33;37.60;;;15.65;;
49590;SDS011;35496;-21.974;-46.800;2023-05-10T12:11:59;28.15;;;13.65;;
49590;SDS011;35496;-21.974;-46.800;2023-05-10T12:14:26;29.35;;;12.55;;
49590;SDS011;35496;-21.974;-46.800;2023-05-10T12:16:53;25.33;;;11.93;;
49590;SDS011;35496;-21.974;-46.800;2023-05-10T12:19:19;25.92;;;14.10;;
49590;SDS011;35496;-21.974;-46.800;2023-05-10T12:21:48;32.47;;;14.05;;
49590;SDS011;35496;-21.974;-46.800;2023-05-10T12:24:14;43.50;;;20.70;;
49590;SDS011;35496;-21.974;-46.800;2023-05-10T12:26:43;30.95;;;17.30;;
49590;SDS011;35496;-21.974;-46.800;2023-05-10T12:31:52;34.42;;;19.15;;
49590;SDS011;35496;-21.974;-46.800;2023-05-10T12:34:31;21.25;;;13.85;;
49590;SDS011;35496;-21.974;-46.800;2023-05-10T12:36:57;16.20;;;10.88;;
49590;SDS011;35496;-21.974;-46.800;2023-05-10T12:39:23;16.27;;;11.57;;
49590;SDS011;35496;-21.974;-46.800;2023-05-10T12:41:50;16.48;;;11.00;;
49590;SDS011;35496;-21.974;-46.800;2023-05-10T12:44:16;13.88;;;10.98;;
49590;SDS011;35496;-21.974;-46.800;2023-05-10T12:46:42;18.55;;;10.02;;
49590;SDS011;35496;-21.974;-46.800;2023-05-10T12:49:09;18.05;;;12.20;;
49590;SDS011;35496;-21.974;-46.800;2023-05-10T12:51:35;16.40;;;11.93;;
49590;SDS011;35496;-21.974;-46.800;2023-05-10T12:54:02;12.43;;;10.43;;
49590;SDS011;35496;-21.974;-46.800;2023-05-10T12:56:28;14.32;;;10.63;;
49590;SDS011;35496;-21.974;-46.800;2023-05-10T12:58:54;9.95;;;9.05;;
49590;SDS011;35496;-21.974;-46.800;2023-05-10T13:01:20;16.42;;;11.63;;
49590;SDS011;35496;-21.974;-46.800;2023-05-10T13:03:46;19.38;;;12.73;;
49590;SDS011;35496;-21.974;-46.800;2023-05-10T13:06:13;28.77;;;12.82;;
49590;SDS011;35496;-21.974;-46.800;2023-05-10T13:08:39;20.20;;;11.93;;
49590;SDS011;35496;-21.974;-46.800;2023-05-10T13:11:05;22.52;;;11.57;;
49590;SDS011;35496;-21.974;-46.800;2023-05-10T13:13:31;24.02;;;10.15;;
49590;SDS011;35496;-21.974;-46.800;2023-05-10T13:15:57;19.33;;;11.95;;
49590;SDS011;35496;-21.974;-46.800;2023-05-10T13:18:23;15.23;;;10.73;;
49590;SDS011;35496;-21.974;-46.800;2023-05-10T13:20:49;20.13;;;11.98;;
49590;SDS011;35496;-21.974;-46.800;2023-05-10T13:23:15;20.38;;;11.38;;
49590;SDS011;35496;-21.974;-46.800;2023-05-10T13:25:41;18.10;;;11.52;;
49590;SDS011;35496;-21.974;-46.800;2023-05-10T13:28:08;23.60;;;12.00;;
49590;SDS011;35496;-21.974;-46.800;2023-05-10T13:30:34;12.88;;;8.18;;
49590;SDS011;35496;-21.974;-46.800;2023-05-10T13:33:00;10.40;;;7.65;;
49590;SDS011;35496;-21.974;-46.800;2023-05-10T13:35:26;10.95;;;7.43;;
49590;SDS011;35496;-21.974;-46.800;2023-05-10T13:37:52;9.38;;;5.47;;
49590;SDS011;35496;-21.974;-46.800;2023-05-10T13:40:18;6.38;;;4.38;;
49590;SDS011;35496;-21.974;-46.800;2023-05-10T13:42:45;11.02;;;5.95;;
49590;SDS011;35496;-21.974;-46.800;2023-05-10T13:45:12;5.75;;;4.65;;
49590;SDS011;35496;-21.974;-46.800;2023-05-10T13:47:38;7.45;;;4.97;;
49590;SDS011;35496;-21.974;-46.800;2023-05-10T13:50:05;6.88;;;4.63;;
49590;SDS011;35496;-21.974;-46.800;2023-05-10T13:52:31;4.55;;;4.15;;
49590;SDS011;35496;-21.974;-46.800;2023-05-10T13:54:57;4.95;;;3.75;;
49590;SDS011;35496;-21.974;-46.800;2023-05-10T13:57:23;8.43;;;4.95;;
49590;SDS011;35496;-21.974;-46.800;2023-05-10T13:59:49;5.47;;;4.35;;
49590;SDS011;35496;-21.974;-46.800;2023-05-10T14:02:15;7.45;;;5.35;;
49590;SDS011;35496;-21.974;-46.800;2023-05-10T14:04:41;7.00;;;4.82;;
49590;SDS011;35496;-21.974;-46.800;2023-05-10T14:07:07;12.88;;;5.90;;
49590;SDS011;35496;-21.974;-46.800;2023-05-10T14:09:33;5.45;;;4.72;;
49590;SDS011;35496;-21.974;-46.800;2023-05-10T14:11:59;6.13;;;4.55;;
49590;SDS011;35496;-21.974;-46.800;2023-05-10T14:14:25;5.63;;;4.63;;
49590;SDS011;35496;-21.974;-46.800;2023-05-10T14:16:52;5.97;;;5.28;;
49590;SDS011;35496;-21.974;-46.800;2023-05-10T14:19:18;9.95;;;5.13;;
49590;SDS011;35496;-21.974;-46.800;2023-05-10T14:21:44;6.82;;;5.35;;